createdAt,value
2022-10-17T00:01:14.413Z,101002.48
2022-10-17T00:03:42.284Z,100995.05
2022-10-17T00:06:13.023Z,100993.91
2022-10-17T00:08:42.865Z,100991.34
2022-10-17T00:11:19.427Z,100991.00
2022-10-17T00:13:48.934Z,100989.77
2022-10-17T00:16:25.813Z,100989.09
2022-10-17T00:18:53.553Z,100991.89
2022-10-17T00:21:21.888Z,100997.13
2022-10-17T00:23:49.623Z,100991.90
2022-10-17T00:26:17.801Z,100992.89
2022-10-17T00:28:50.010Z,101002.08
2022-10-17T00:31:19.705Z,101008.66
2022-10-17T00:33:47.947Z,101007.39
2022-10-17T00:36:18.607Z,101010.84
2022-10-17T00:38:48.372Z,101013.61
2022-10-17T00:41:19.606Z,101012.23
2022-10-17T00:44:05.209Z,100997.09
2022-10-17T00:46:35.563Z,100993.77
2022-10-17T00:49:12.744Z,101000.90
2022-10-17T00:51:47.854Z,100993.73
2022-10-17T00:54:19.366Z,100994.17
2022-10-17T00:56:48.740Z,100999.13
2022-10-17T00:59:19.393Z,101003.02
2022-10-17T01:02:18.849Z,101007.93
2022-10-17T01:04:53.240Z,101002.12
2022-10-17T01:07:21.143Z,101010.33
2022-10-17T01:09:49.577Z,101013.45
2022-10-17T01:12:32.910Z,101010.96
2022-10-17T01:15:27.386Z,101011.98
2022-10-17T01:18:11.034Z,101006.14
2022-10-17T01:20:53.237Z,101002.42
2022-10-17T01:23:51.808Z,100998.02
2022-10-17T01:26:26.345Z,101002.17
2022-10-17T01:28:59.776Z,101004.31
2022-10-17T01:31:55.967Z,101002.45
2022-10-17T01:34:44.340Z,100998.70
2022-10-17T01:37:19.045Z,101004.61
2022-10-17T01:40:12.068Z,101011.83
2022-10-17T01:42:57.781Z,101016.73
2022-10-17T01:45:30.289Z,101013.68
2022-10-17T01:48:03.250Z,101019.56
2022-10-17T01:50:45.643Z,101016.13
2022-10-17T01:53:30.068Z,101020.88
2022-10-17T01:56:02.800Z,101021.58
2022-10-17T01:58:40.331Z,101029.77
2022-10-17T02:01:11.684Z,101033.55
2022-10-17T02:03:43.140Z,101041.73
2022-10-17T02:06:10.956Z,101050.25
2022-10-17T02:08:44.522Z,101047.77
2022-10-17T02:11:19.621Z,101046.83
2022-10-17T02:14:06.045Z,101049.69
2022-10-17T02:16:52.218Z,101036.14
2022-10-17T02:19:37.271Z,101031.96
2022-10-17T02:22:21.357Z,101032.91
2022-10-17T02:25:20.411Z,101034.45
2022-10-17T02:28:20.249Z,101037.44
2022-10-17T02:30:59.024Z,101039.75
2022-10-17T02:33:37.707Z,101040.32
2022-10-17T02:36:12.006Z,101045.74
2022-10-17T02:38:41.663Z,101047.28
2022-10-17T02:41:14.470Z,101055.41
2022-10-17T02:43:45.448Z,101059.95
2022-10-17T02:46:21.128Z,101059.38
2022-10-17T02:48:54.927Z,101060.86
2022-10-17T02:51:41.604Z,101065.30
2022-10-17T02:54:18.598Z,101065.86
2022-10-17T02:57:01.016Z,101058.08
2022-10-17T02:59:32.432Z,101051.70
2022-10-17T03:02:05.959Z,101050.64
2022-10-17T03:04:34.562Z,101051.15
2022-10-17T03:07:02.452Z,101069.13
2022-10-17T03:09:30.177Z,101080.85
2022-10-17T03:11:57.773Z,101072.98
2022-10-17T03:14:25.364Z,101078.66
2022-10-17T03:16:53.043Z,101089.79
2022-10-17T03:19:20.820Z,101096.41
2022-10-17T03:21:49.263Z,101093.21
2022-10-17T03:24:16.863Z,101087.42
2022-10-17T03:29:14.527Z,101088.35
2022-10-17T03:31:42.183Z,101089.02
2022-10-17T03:34:09.734Z,101089.34
2022-10-17T03:36:37.485Z,101099.64
2022-10-17T03:39:05.201Z,101100.02
2022-10-17T03:41:32.781Z,101105.31
2022-10-17T03:44:00.400Z,101108.48
2022-10-17T03:46:28.064Z,101101.51
2022-10-17T03:48:55.663Z,101097.88
2022-10-17T03:51:23.188Z,101103.84
2022-10-17T03:53:50.996Z,101102.70
2022-10-17T03:56:23.846Z,101103.05
2022-10-17T03:58:51.591Z,101108.67
2022-10-17T04:01:19.887Z,101106.17
2022-10-17T04:03:53.195Z,101111.64
2022-10-17T04:06:24.812Z,101110.66
2022-10-17T04:08:52.620Z,101109.65
2022-10-17T04:11:21.739Z,101111.72
2022-10-17T04:13:54.695Z,101122.51
2022-10-17T04:16:23.736Z,101136.10
2022-10-17T04:18:56.419Z,101136.63
2022-10-17T04:21:26.322Z,101139.92
2022-10-17T04:23:55.441Z,101136.57
2022-10-17T04:26:24.908Z,101137.74
2022-10-17T04:28:52.668Z,101136.50
2022-10-17T04:31:20.245Z,101133.89
2022-10-17T04:33:49.542Z,101129.89
2022-10-17T04:36:21.188Z,101127.31
2022-10-17T04:38:49.019Z,101128.19
2022-10-17T04:41:18.961Z,101125.76
2022-10-17T04:43:50.128Z,101128.54
2022-10-17T04:46:19.603Z,101125.89
2022-10-17T04:48:47.378Z,101125.16
2022-10-17T04:51:20.604Z,101127.77
2022-10-17T04:53:50.820Z,101123.77
2022-10-17T04:56:21.923Z,101131.33
2022-10-17T04:58:50.436Z,101132.91
2022-10-17T05:01:20.986Z,101137.66
2022-10-17T05:03:50.304Z,101138.34
2022-10-17T05:06:24.065Z,101140.06
2022-10-17T05:08:51.939Z,101137.94
2022-10-17T05:11:20.982Z,101138.61
2022-10-17T05:13:53.799Z,101140.00
2022-10-17T05:16:23.050Z,101142.44
2022-10-17T05:18:55.769Z,101139.98
2022-10-17T05:21:25.150Z,101138.21
2022-10-17T05:23:54.219Z,101134.16
2022-10-17T05:26:24.493Z,101138.48
2022-10-17T05:28:52.978Z,101143.53
2022-10-17T05:31:20.682Z,101146.67
2022-10-17T05:33:48.293Z,101147.71
2022-10-17T05:36:16.013Z,101153.09
2022-10-17T05:38:43.494Z,101163.17
2022-10-17T05:41:11.071Z,101169.63
2022-10-17T05:43:38.701Z,101170.45
2022-10-17T05:46:06.962Z,101173.88
2022-10-17T05:48:34.635Z,101171.17
2022-10-17T05:51:07.092Z,101169.16
2022-10-17T05:53:37.805Z,101169.80
2022-10-17T05:56:07.995Z,101175.36
2022-10-17T05:59:00.670Z,101180.61
2022-10-17T06:01:31.642Z,101184.92
2022-10-17T06:03:59.678Z,101189.27
2022-10-17T06:06:27.984Z,101196.15
2022-10-17T06:08:55.948Z,101199.57
2022-10-17T06:11:24.505Z,101201.54
2022-10-17T06:13:53.430Z,101201.93
2022-10-17T06:16:23.480Z,101204.92
2022-10-17T06:18:53.630Z,101215.09
2022-10-17T06:21:25.812Z,101213.40
2022-10-17T06:23:53.927Z,101219.42
2022-10-17T06:26:22.148Z,101225.46
2022-10-17T06:28:49.773Z,101226.10
2022-10-17T06:31:17.906Z,101231.27
2022-10-17T06:33:46.192Z,101236.60
2022-10-17T06:36:15.238Z,101235.06
2022-10-17T06:38:45.415Z,101234.07
2022-10-17T06:41:15.705Z,101236.58
2022-10-17T06:43:46.385Z,101229.81
2022-10-17T06:46:16.041Z,101228.67
2022-10-17T06:48:44.299Z,101230.68
2022-10-17T06:51:12.759Z,101235.00
2022-10-17T06:53:41.235Z,101236.50
2022-10-17T06:56:10.490Z,101239.40
2022-10-17T06:58:40.078Z,101235.31
2022-10-17T07:01:13.463Z,101232.42
2022-10-17T07:03:41.803Z,101230.98
2022-10-17T07:06:13.333Z,101225.02
2022-10-17T07:08:45.960Z,101224.09
2022-10-17T07:11:17.068Z,101229.43
2022-10-17T07:13:44.936Z,101233.05
2022-10-17T07:16:13.645Z,101236.35
2022-10-17T07:18:42.694Z,101240.70
2022-10-17T07:21:10.464Z,101242.90
2022-10-17T07:23:38.885Z,101241.50
2022-10-17T07:26:11.460Z,101246.10
2022-10-17T07:28:41.782Z,101250.94
2022-10-17T07:31:15.022Z,101255.80
2022-10-17T07:33:44.168Z,101262.60
2022-10-17T07:36:12.941Z,101259.20
2022-10-17T07:38:40.801Z,101256.13
2022-10-17T07:41:10.713Z,101254.64
2022-10-17T07:43:38.811Z,101258.62
2022-10-17T07:46:06.434Z,101262.15
2022-10-17T07:48:34.861Z,101267.39
2022-10-17T07:51:05.209Z,101266.05
2022-10-17T07:53:38.542Z,101265.64
2022-10-17T07:56:07.930Z,101263.61
2022-10-17T07:58:35.809Z,101260.56
2022-10-17T08:01:14.875Z,101261.64
2022-10-17T08:03:44.984Z,101250.65
2022-10-17T08:06:13.482Z,101254.97
2022-10-17T08:08:42.038Z,101251.77
2022-10-17T08:11:13.473Z,101248.13
2022-10-17T08:13:42.587Z,101242.72
2022-10-17T08:16:13.118Z,101241.38
2022-10-17T08:18:42.256Z,101239.58
2022-10-17T08:21:11.251Z,101241.17
2022-10-17T08:23:39.400Z,101241.95
2022-10-17T08:26:10.772Z,101233.09
2022-10-17T08:28:40.341Z,101227.04
2022-10-17T08:31:11.531Z,101227.00
2022-10-17T08:33:39.839Z,101229.87
2022-10-17T08:36:08.846Z,101233.33
2022-10-17T08:38:41.446Z,101233.13
2022-10-17T08:41:31.439Z,101234.92
2022-10-17T08:44:19.369Z,101230.94
2022-10-17T08:46:50.066Z,101232.68
2022-10-17T08:49:48.159Z,101233.58
2022-10-17T08:52:25.818Z,101232.49
2022-10-17T08:54:53.445Z,101231.19
2022-10-17T08:57:21.296Z,101223.85
2022-10-17T08:59:54.278Z,101222.52
2022-10-17T09:02:54.087Z,101223.27
2022-10-17T09:05:34.721Z,101224.19
2022-10-17T09:08:09.769Z,101224.31
2022-10-17T09:10:59.802Z,101226.41
2022-10-17T09:13:34.664Z,101229.02
2022-10-17T09:16:02.869Z,101231.98
2022-10-17T09:18:38.970Z,101226.53
2022-10-17T09:21:27.496Z,101220.24
2022-10-17T09:24:08.920Z,101215.77
2022-10-17T09:26:42.601Z,101215.83
2022-10-17T09:29:24.207Z,101220.14
2022-10-17T09:32:14.031Z,101223.38
2022-10-17T09:34:41.846Z,101215.92
2022-10-17T09:37:17.288Z,101215.67
2022-10-17T09:39:45.760Z,101216.41
2022-10-17T09:42:21.664Z,101220.04
2022-10-17T09:44:57.546Z,101220.89
2022-10-17T09:47:30.194Z,101217.91
2022-10-17T09:49:58.158Z,101217.63
2022-10-17T09:52:36.626Z,101214.09
2022-10-17T09:55:22.395Z,101215.02
2022-10-17T09:58:07.053Z,101207.41
2022-10-17T10:00:47.264Z,101207.48
2022-10-17T10:03:27.251Z,101207.38
2022-10-17T10:06:13.244Z,101206.41
2022-10-17T10:09:00.547Z,101200.45
2022-10-17T10:11:45.708Z,101200.83
2022-10-17T10:14:21.633Z,101199.78
2022-10-17T10:16:51.140Z,101200.74
2022-10-17T10:19:38.635Z,101200.89
2022-10-17T10:22:16.312Z,101203.14
2022-10-17T10:24:43.782Z,101207.27
2022-10-17T10:27:17.598Z,101207.51
2022-10-17T10:29:52.915Z,101206.39
2022-10-17T10:32:24.844Z,101206.09
2022-10-17T10:34:59.181Z,101201.96
2022-10-17T10:37:47.842Z,101197.99
2022-10-17T10:40:23.060Z,101194.23
2022-10-17T10:43:04.832Z,101189.62
2022-10-17T10:45:47.539Z,101189.19
2022-10-17T10:48:34.939Z,101184.69
2022-10-17T10:51:12.875Z,101182.34
2022-10-17T10:54:03.256Z,101179.67
2022-10-17T10:56:39.069Z,101176.66
2022-10-17T10:59:18.943Z,101178.57
2022-10-17T11:02:02.461Z,101177.75
2022-10-17T11:04:45.946Z,101175.95
2022-10-17T11:07:39.352Z,101174.77
2022-10-17T11:10:38.893Z,101176.02
2022-10-17T11:13:13.836Z,101179.09
2022-10-17T11:16:20.502Z,101172.60
2022-10-17T11:18:59.713Z,101176.56
2022-10-17T11:21:49.077Z,101174.25
2022-10-17T11:24:24.631Z,101174.72
2022-10-17T11:27:08.818Z,101174.90
2022-10-17T11:29:41.303Z,101168.29
2022-10-17T11:32:31.585Z,101162.80
2022-10-17T11:35:16.873Z,101164.39
2022-10-17T11:37:52.313Z,101160.63
2022-10-17T11:40:30.058Z,101161.68
2022-10-17T11:43:14.333Z,101157.79
2022-10-17T11:45:55.465Z,101151.98
2022-10-17T11:48:52.295Z,101151.83
2022-10-17T11:54:22.121Z,101148.67
2022-10-17T11:57:26.027Z,101143.44
2022-10-17T12:00:04.456Z,101147.59
2022-10-17T12:02:46.330Z,101141.67
2022-10-17T12:05:38.579Z,101139.61
2022-10-17T12:08:18.570Z,101136.02
2022-10-17T12:10:59.982Z,101138.14
2022-10-17T12:13:50.500Z,101131.94
2022-10-17T12:16:21.261Z,101127.56
2022-10-17T12:19:10.950Z,101127.59
2022-10-17T12:21:55.730Z,101122.82
2022-10-17T12:24:45.702Z,101125.23
2022-10-17T12:27:30.710Z,101122.08
2022-10-17T12:30:20.595Z,101120.77
2022-10-17T12:33:05.601Z,101119.58
2022-10-17T12:35:36.497Z,101116.00
2022-10-17T12:38:15.153Z,101111.83
2022-10-17T12:40:47.750Z,101107.52
2022-10-17T12:43:16.362Z,101106.80
2022-10-17T12:46:01.678Z,101108.64
2022-10-17T12:48:45.384Z,101107.38
2022-10-17T12:51:35.864Z,101104.86
2022-10-17T12:54:21.919Z,101100.90
2022-10-17T12:56:50.037Z,101098.73
2022-10-17T12:59:23.364Z,101101.30
2022-10-17T13:01:59.980Z,101104.01
2022-10-17T13:04:29.830Z,101105.17
2022-10-17T13:07:01.250Z,101103.64
2022-10-17T13:09:36.153Z,101102.02
2022-10-17T13:12:10.845Z,101098.56
2022-10-17T13:14:42.422Z,101095.29
2022-10-17T13:17:23.560Z,101094.77
2022-10-17T13:19:51.953Z,101099.55
2022-10-17T13:22:22.793Z,101099.05
2022-10-17T13:24:52.553Z,101096.23
2022-10-17T13:27:39.080Z,101096.90
2022-10-17T13:30:29.355Z,101095.98
2022-10-17T13:33:01.104Z,101095.90
2022-10-17T13:35:55.719Z,101096.92
2022-10-17T13:38:28.188Z,101094.58
2022-10-17T13:41:01.949Z,101089.98
2022-10-17T13:43:38.939Z,101089.05
2022-10-17T13:46:32.658Z,101085.42
2022-10-17T13:48:55.271Z,101087.93
2022-10-17T13:51:25.718Z,101090.58
2022-10-17T13:53:53.982Z,101092.49
2022-10-17T13:56:29.123Z,101090.80
2022-10-17T13:59:00.866Z,101085.33
2022-10-17T14:01:29.624Z,101085.58
2022-10-17T14:04:08.481Z,101081.39
2022-10-17T14:06:49.786Z,101081.00
2022-10-17T14:09:29.548Z,101076.39
2022-10-17T14:12:03.201Z,101073.55
2022-10-17T14:14:46.078Z,101069.89
2022-10-17T14:17:27.741Z,101070.00
2022-10-17T14:20:26.511Z,101072.65
2022-10-17T14:23:04.535Z,101074.02
2022-10-17T14:25:37.670Z,101075.83
2022-10-17T14:28:11.881Z,101067.14
2022-10-17T14:30:58.346Z,101060.64
2022-10-17T14:33:31.270Z,101063.75
2022-10-17T14:36:01.516Z,101062.58
2022-10-17T14:38:30.341Z,101059.52
2022-10-17T14:41:42.569Z,101060.64
2022-10-17T14:44:21.786Z,101054.32
2022-10-17T14:46:57.855Z,101045.23
2022-10-17T14:49:35.427Z,101043.64
2022-10-17T14:52:30.190Z,101042.36
2022-10-17T14:54:59.688Z,101037.59
2022-10-17T14:57:33.191Z,101033.77
2022-10-17T15:00:00.845Z,101034.24
2022-10-17T15:02:30.427Z,101036.65
2022-10-17T15:04:58.319Z,101040.86
2022-10-17T15:07:25.904Z,101042.40
2022-10-17T15:09:54.151Z,101036.79
2022-10-17T15:12:25.791Z,101034.20
2022-10-17T15:14:54.094Z,101035.02
2022-10-17T15:17:26.436Z,101036.92
2022-10-17T15:19:54.710Z,101035.61
2022-10-17T15:22:22.859Z,101038.83
2022-10-17T15:24:50.617Z,101033.45
2022-10-17T15:27:21.428Z,101033.77
2022-10-17T15:29:50.396Z,101033.32
2022-10-17T15:32:17.914Z,101034.90
2022-10-17T15:34:45.653Z,101032.73
2022-10-17T15:37:17.919Z,101034.08
2022-10-17T15:39:52.863Z,101035.97
2022-10-17T15:42:28.559Z,101036.08
2022-10-17T15:44:57.238Z,101035.29
2022-10-17T15:47:29.226Z,101035.86
2022-10-17T15:49:57.183Z,101031.80
2022-10-17T15:52:25.140Z,101033.30
2022-10-17T15:54:53.803Z,101031.21
2022-10-17T15:57:29.386Z,101031.77
2022-10-17T15:59:59.452Z,101029.64
2022-10-17T16:02:27.395Z,101033.02
2022-10-17T16:04:55.056Z,101035.02
2022-10-17T16:07:22.978Z,101029.46
2022-10-17T16:09:50.578Z,101030.20
2022-10-17T16:12:27.577Z,101028.87
2022-10-17T16:14:55.474Z,101035.83
2022-10-17T16:17:23.119Z,101039.13
2022-10-17T16:19:50.728Z,101038.84
2022-10-17T16:22:26.304Z,101042.53
2022-10-17T16:24:58.764Z,101042.40
2022-10-17T16:27:26.540Z,101042.95
2022-10-17T16:29:54.155Z,101043.38
2022-10-17T16:32:21.768Z,101040.80
2022-10-17T16:34:49.345Z,101037.42
2022-10-17T16:37:16.963Z,101036.13
2022-10-17T16:39:48.958Z,101038.99
2022-10-17T16:42:16.659Z,101039.88
2022-10-17T16:44:44.993Z,101042.30
2022-10-17T16:47:13.149Z,101043.27
2022-10-17T16:49:45.315Z,101041.45
2022-10-17T16:52:13.371Z,101043.40
2022-10-17T16:54:41.271Z,101040.05
2022-10-17T16:57:08.961Z,101044.06
2022-10-17T16:59:36.714Z,101042.02
2022-10-17T17:02:04.590Z,101041.73
2022-10-17T17:04:32.189Z,101038.82
2022-10-17T17:06:59.713Z,101032.63
2022-10-17T17:09:27.429Z,101031.55
2022-10-17T17:11:55.061Z,101025.14
2022-10-17T17:14:22.729Z,101028.37
2022-10-17T17:16:50.364Z,101029.16
2022-10-17T17:19:18.037Z,101027.27
2022-10-17T17:21:50.880Z,101028.41
2022-10-17T17:24:22.860Z,101029.05
2022-10-17T17:26:53.057Z,101029.02
2022-10-17T17:29:21.724Z,101026.31
2022-10-17T17:31:49.723Z,101024.84
2022-10-17T17:34:18.372Z,101023.13
2022-10-17T17:36:46.248Z,101027.11
2022-10-17T17:39:14.891Z,101026.81
2022-10-17T17:41:43.832Z,101028.95
2022-10-17T17:44:16.957Z,101026.73
2022-10-17T17:46:45.539Z,101018.98
2022-10-17T17:49:13.513Z,101016.37
2022-10-17T17:51:41.795Z,101016.25
2022-10-17T17:54:12.613Z,101012.46
2022-10-17T17:56:40.231Z,101006.42
2022-10-17T17:59:07.808Z,101008.08
2022-10-17T18:01:38.236Z,101010.02
2022-10-17T18:04:08.687Z,101008.88
2022-10-17T18:06:38.327Z,101010.48
2022-10-17T18:09:07.415Z,101011.05
2022-10-17T18:11:36.168Z,101010.45
2022-10-17T18:14:07.059Z,101010.58
2022-10-17T18:16:36.317Z,101007.69
2022-10-17T18:19:07.168Z,101004.80
2022-10-17T18:21:36.350Z,101002.42
2022-10-17T18:24:04.797Z,101001.83
2022-10-17T18:26:33.085Z,100999.83
2022-10-17T18:29:01.037Z,101002.55
2022-10-17T18:31:31.983Z,100999.11
2022-10-17T18:34:02.565Z,100991.83
2022-10-17T18:36:31.310Z,100993.84
2022-10-17T18:39:01.203Z,100990.08
2022-10-17T18:41:29.299Z,100989.02
2022-10-17T18:43:57.343Z,100987.80
2022-10-17T18:46:32.255Z,100986.77
2022-10-17T18:49:00.006Z,100981.40
2022-10-17T18:51:27.858Z,100983.75
2022-10-17T18:53:58.645Z,100984.52
2022-10-17T18:56:26.534Z,100981.69
2022-10-17T18:58:55.116Z,100981.52
2022-10-17T19:01:26.947Z,100978.61
2022-10-17T19:03:56.868Z,100981.13
2022-10-17T19:06:31.790Z,100981.52
2022-10-17T19:09:00.865Z,100980.14
2022-10-17T19:11:30.113Z,100981.74
2022-10-17T19:14:00.807Z,100976.86
2022-10-17T19:16:32.419Z,100976.96
2022-10-17T19:19:18.792Z,100976.52
2022-10-17T19:21:46.911Z,100976.59
2022-10-17T19:24:20.096Z,100972.74
2022-10-17T19:26:55.796Z,100973.14
2022-10-17T19:29:31.774Z,100971.09
2022-10-17T19:32:00.752Z,100965.73
2022-10-17T19:34:28.894Z,100958.77
2022-10-17T19:36:56.527Z,100957.27
2022-10-17T19:39:25.076Z,100953.65
2022-10-17T19:41:52.888Z,100955.32
2022-10-17T19:44:21.593Z,100953.98
2022-10-17T19:46:50.405Z,100953.39
2022-10-17T19:49:18.392Z,100951.02
2022-10-17T19:51:49.019Z,100950.89
2022-10-17T19:54:18.644Z,100944.41
2022-10-17T19:56:46.797Z,100947.03
2022-10-17T19:59:15.832Z,100945.48
2022-10-17T20:01:44.324Z,100945.02
2022-10-17T20:04:12.671Z,100944.72
2022-10-17T20:06:41.241Z,100935.30
2022-10-17T20:09:13.961Z,100938.30
2022-10-17T20:11:44.963Z,100942.88
2022-10-17T20:14:12.603Z,100941.35
2022-10-17T20:16:40.160Z,100943.77
2022-10-17T20:19:10.970Z,100940.88
2022-10-17T20:21:39.634Z,100942.67
2022-10-17T20:24:11.425Z,100943.44
2022-10-17T20:26:40.084Z,100939.45
2022-10-17T20:29:12.988Z,100937.36
2022-10-17T20:31:42.937Z,100934.98
2022-10-17T20:34:14.013Z,100940.61
2022-10-17T20:36:41.796Z,100941.66
2022-10-17T20:39:12.031Z,100943.10
2022-10-17T20:41:40.503Z,100944.50
2022-10-17T20:44:08.985Z,100950.83
2022-10-17T20:46:44.104Z,100955.20
2022-10-17T20:49:15.947Z,100958.45
2022-10-17T20:51:44.499Z,100953.86
2022-10-17T20:54:12.615Z,100954.69
2022-10-17T20:56:40.501Z,100954.60
2022-10-17T20:59:12.640Z,100950.52
2022-10-17T21:01:40.584Z,100948.72
2022-10-17T21:04:40.673Z,100944.81
2022-10-17T21:06:56.395Z,100943.29
2022-10-17T21:09:24.240Z,100945.65
2022-10-17T21:11:55.224Z,100948.50
2022-10-17T21:14:24.615Z,100950.92
2022-10-17T21:16:52.580Z,100951.23
2022-10-17T21:19:21.661Z,100950.63
2022-10-17T21:21:49.475Z,100950.17
2022-10-17T21:24:20.398Z,100947.23
2022-10-17T21:26:54.965Z,100951.00
2022-10-17T21:29:23.650Z,100949.88
2022-10-17T21:31:51.738Z,100946.48
2022-10-17T21:34:21.895Z,100946.38
2022-10-17T21:36:49.603Z,100945.25
2022-10-17T21:39:17.551Z,100942.67
2022-10-17T21:41:45.162Z,100943.95
2022-10-17T21:44:15.281Z,100945.63
2022-10-17T21:46:43.135Z,100945.04
2022-10-17T21:49:16.572Z,100940.73
2022-10-17T21:51:44.848Z,100936.62
2022-10-17T21:54:12.378Z,100934.77
2022-10-17T21:56:40.436Z,100936.05
2022-10-17T21:59:08.502Z,100938.43
2022-10-17T22:01:42.391Z,100932.39
2022-10-17T22:04:18.445Z,100933.33
2022-10-17T22:06:50.967Z,100932.52
2022-10-17T22:09:24.100Z,100936.04
2022-10-17T22:11:54.814Z,100932.05
2022-10-17T22:14:24.245Z,100935.23
2022-10-17T22:16:52.551Z,100936.31
2022-10-17T22:19:23.758Z,100937.09
2022-10-17T22:21:51.953Z,100936.28
2022-10-17T22:26:49.575Z,100939.90
2022-10-17T22:29:17.649Z,100942.59
2022-10-17T22:31:45.781Z,100939.22
2022-10-17T22:34:15.245Z,100933.23
2022-10-17T22:36:43.013Z,100930.83
2022-10-17T22:39:11.286Z,100929.64
2022-10-17T22:41:38.927Z,100927.91
2022-10-17T22:44:06.746Z,100930.20
2022-10-17T22:46:34.355Z,100923.94
2022-10-17T22:49:01.954Z,100920.16
2022-10-17T22:51:29.531Z,100918.66
2022-10-17T22:53:57.106Z,100914.32
2022-10-17T22:56:24.925Z,100906.49
2022-10-17T22:58:53.515Z,100899.35
2022-10-17T23:01:23.346Z,100894.13
2022-10-17T23:03:52.739Z,100898.55
2022-10-17T23:06:21.019Z,100905.10
2022-10-17T23:08:48.949Z,100902.00
2022-10-17T23:11:17.079Z,100899.34
2022-10-17T23:13:44.662Z,100900.19
2022-10-17T23:16:13.556Z,100894.13
2022-10-17T23:18:41.498Z,100902.90
2022-10-17T23:21:09.170Z,100901.34
2022-10-17T23:23:37.191Z,100901.86
2022-10-17T23:26:10.516Z,100899.80
2022-10-17T23:28:39.194Z,100896.70
2022-10-17T23:31:11.458Z,100894.61
2022-10-17T23:33:41.125Z,100891.91
2022-10-17T23:36:10.624Z,100892.02
2022-10-17T23:38:39.444Z,100884.89
2022-10-17T23:41:07.470Z,100890.36
2022-10-17T23:43:35.096Z,100888.16
2022-10-17T23:46:04.408Z,100886.99
2022-10-17T23:48:32.368Z,100893.39
2022-10-17T23:51:00.000Z,100883.98
2022-10-17T23:53:28.618Z,100876.64
2022-10-17T23:55:56.355Z,100875.78
2022-10-17T23:58:24.054Z,100875.66
